createdAt,value
2022-10-24T00:01:11.510Z,2.95
2022-10-24T00:02:45.366Z,3.40
2022-10-24T00:04:18.521Z,2.45
2022-10-24T00:05:51.775Z,2.90
2022-10-24T00:07:25.054Z,3.00
2022-10-24T00:08:58.326Z,2.85
2022-10-24T00:10:32.876Z,3.85
2022-10-24T00:12:07.102Z,3.70
2022-10-24T00:13:40.399Z,4.38
2022-10-24T00:15:14.249Z,5.18
2022-10-24T00:16:47.397Z,4.70
2022-10-24T00:18:20.721Z,4.30
2022-10-24T00:19:54.252Z,3.60
2022-10-24T00:21:27.679Z,3.60
2022-10-24T00:23:00.802Z,5.70
2022-10-24T00:24:34.104Z,5.53
2022-10-24T00:26:08.824Z,4.30
2022-10-24T00:27:42.220Z,3.72
2022-10-24T00:29:15.312Z,3.03
2022-10-24T00:30:52.774Z,3.35
2022-10-24T00:32:25.893Z,14.02
2022-10-24T00:34:00.084Z,11.38
2022-10-24T00:35:35.069Z,9.10
2022-10-24T00:37:08.414Z,4.15
2022-10-24T00:38:41.549Z,3.85
2022-10-24T00:40:18.905Z,3.72
2022-10-24T00:41:54.258Z,4.35
2022-10-24T00:43:28.568Z,4.30
2022-10-24T00:45:02.772Z,4.90
2022-10-24T00:46:36.354Z,6.35
2022-10-24T00:48:18.845Z,6.78
2022-10-24T00:50:00.690Z,4.93
2022-10-24T00:51:35.484Z,6.05
2022-10-24T00:53:09.896Z,5.57
2022-10-24T00:54:44.042Z,5.10
2022-10-24T00:56:22.816Z,4.63
2022-10-24T00:58:01.617Z,3.45
2022-10-24T00:59:36.323Z,3.35
2022-10-24T01:01:09.217Z,2.65
2022-10-24T01:02:43.713Z,3.15
2022-10-24T01:04:17.188Z,2.97
2022-10-24T01:06:07.064Z,3.08
2022-10-24T01:07:50.929Z,3.75
2022-10-24T01:09:44.486Z,2.40
2022-10-24T01:11:29.950Z,3.22
2022-10-24T01:13:17.060Z,3.30
2022-10-24T01:14:59.223Z,3.17
2022-10-24T01:16:41.801Z,3.17
2022-10-24T01:18:22.533Z,3.25
2022-10-24T01:20:26.668Z,3.20
2022-10-24T01:22:05.201Z,2.58
2022-10-24T01:24:32.157Z,3.00
2022-10-24T01:26:27.007Z,3.58
2022-10-24T01:28:05.755Z,3.42
2022-10-24T01:30:08.353Z,3.30
2022-10-24T01:31:48.936Z,3.38
2022-10-24T01:33:27.927Z,3.50
2022-10-24T01:35:06.744Z,3.13
2022-10-24T01:36:45.813Z,3.00
2022-10-24T01:38:25.459Z,2.60
2022-10-24T01:40:03.973Z,2.90
2022-10-24T01:41:37.749Z,2.53
2022-10-24T01:43:14.497Z,2.97
2022-10-24T01:44:51.678Z,3.10
2022-10-24T01:46:30.085Z,2.80
2022-10-24T01:48:06.759Z,2.80
2022-10-24T01:49:43.255Z,3.45
2022-10-24T01:51:19.076Z,2.83
2022-10-24T01:52:53.225Z,3.10
2022-10-24T01:54:26.495Z,3.95
2022-10-24T01:56:00.693Z,3.80
2022-10-24T01:57:34.671Z,3.00
2022-10-24T01:59:09.133Z,3.22
2022-10-24T02:00:44.694Z,3.83
2022-10-24T02:02:23.625Z,3.35
2022-10-24T02:03:58.221Z,4.05
2022-10-24T02:05:35.759Z,3.08
2022-10-24T02:07:11.289Z,2.88
2022-10-24T02:08:48.592Z,2.55
2022-10-24T02:10:27.370Z,2.75
2022-10-24T02:12:02.127Z,2.85
2022-10-24T02:13:45.131Z,4.53
2022-10-24T02:15:22.209Z,4.28
2022-10-24T02:16:55.750Z,4.53
2022-10-24T02:18:31.801Z,4.78
2022-10-24T02:20:06.074Z,4.93
2022-10-24T02:21:46.038Z,4.63
2022-10-24T02:23:26.472Z,5.70
2022-10-24T02:25:04.903Z,4.80
2022-10-24T02:26:46.285Z,4.82
2022-10-24T02:28:22.012Z,4.95
2022-10-24T02:30:00.341Z,5.43
2022-10-24T02:31:37.707Z,6.13
2022-10-24T02:33:12.482Z,6.43
2022-10-24T02:34:47.972Z,6.85
2022-10-24T02:36:27.323Z,5.85
2022-10-24T02:38:05.927Z,5.38
2022-10-24T02:39:42.207Z,4.82
2022-10-24T02:41:21.100Z,4.50
2022-10-24T02:42:58.452Z,3.83
2022-10-24T02:44:33.867Z,3.97
2022-10-24T02:46:09.115Z,3.38
2022-10-24T02:47:44.594Z,2.92
2022-10-24T02:49:18.310Z,3.08
2022-10-24T02:50:52.106Z,3.40
2022-10-24T02:52:25.871Z,3.05
2022-10-24T02:54:00.866Z,2.83
2022-10-24T02:55:34.149Z,3.40
2022-10-24T02:57:06.511Z,3.55
2022-10-24T02:58:39.698Z,3.70
2022-10-24T03:00:12.929Z,4.57
2022-10-24T03:01:46.290Z,5.00
2022-10-24T03:03:19.761Z,4.78
2022-10-24T03:04:53.045Z,4.32
2022-10-24T03:06:27.577Z,3.55
2022-10-24T03:08:00.833Z,16.60
2022-10-24T03:09:34.396Z,6.07
2022-10-24T03:11:07.829Z,28.92
2022-10-24T03:12:41.211Z,5.63
2022-10-24T03:14:14.405Z,4.03
2022-10-24T03:17:26.001Z,3.58
2022-10-24T03:19:00.321Z,4.28
2022-10-24T03:20:33.569Z,3.53
2022-10-24T03:22:08.414Z,3.72
2022-10-24T03:23:41.648Z,3.45
2022-10-24T03:25:14.784Z,3.38
2022-10-24T03:26:47.935Z,4.85
2022-10-24T03:28:21.229Z,8.75
2022-10-24T03:29:54.523Z,18.15
2022-10-24T03:31:28.113Z,18.90
2022-10-24T03:33:00.274Z,17.02
2022-10-24T03:34:34.364Z,14.82
2022-10-24T03:36:07.825Z,9.90
2022-10-24T03:37:42.412Z,10.07
2022-10-24T03:39:15.699Z,10.13
2022-10-24T03:40:49.242Z,10.60
2022-10-24T03:42:22.483Z,16.55
2022-10-24T03:43:55.605Z,23.08
2022-10-24T03:45:28.791Z,19.33
2022-10-24T03:47:02.323Z,12.60
2022-10-24T03:48:35.581Z,7.10
2022-10-24T03:50:09.720Z,7.25
2022-10-24T03:51:42.934Z,6.45
2022-10-24T03:53:17.503Z,12.07
2022-10-24T03:54:50.945Z,14.75
2022-10-24T03:56:24.098Z,13.57
2022-10-24T03:57:57.544Z,10.30
2022-10-24T03:59:30.815Z,9.63
2022-10-24T04:01:04.149Z,8.50
2022-10-24T04:02:40.217Z,10.15
2022-10-24T04:04:16.184Z,8.90
2022-10-24T04:05:49.545Z,7.82
2022-10-24T04:07:22.781Z,9.27
2022-10-24T04:08:57.542Z,14.15
2022-10-24T04:10:30.786Z,11.75
2022-10-24T04:12:04.718Z,13.60
2022-10-24T04:13:37.018Z,15.68
2022-10-24T04:15:10.903Z,12.40
2022-10-24T04:16:44.095Z,38.03
2022-10-24T04:18:17.354Z,23.02
2022-10-24T04:19:50.578Z,30.23
2022-10-24T04:21:23.708Z,27.35
2022-10-24T04:22:58.291Z,19.95
2022-10-24T04:24:33.816Z,13.48
2022-10-24T04:26:07.045Z,13.40
2022-10-24T04:27:40.836Z,14.52
2022-10-24T04:29:14.139Z,11.50
2022-10-24T04:30:47.555Z,10.88
2022-10-24T04:32:20.736Z,8.85
2022-10-24T04:33:53.838Z,20.55
2022-10-24T04:35:27.500Z,17.90
2022-10-24T04:37:00.712Z,21.70
2022-10-24T04:38:33.996Z,17.90
2022-10-24T04:40:08.749Z,19.20
2022-10-24T04:41:41.914Z,12.90
2022-10-24T04:43:15.184Z,10.07
2022-10-24T04:44:48.689Z,11.90
2022-10-24T04:46:21.900Z,6.88
2022-10-24T04:47:55.063Z,6.78
2022-10-24T04:49:28.957Z,5.90
2022-10-24T04:51:02.684Z,6.63
2022-10-24T04:52:35.814Z,4.82
2022-10-24T04:54:09.186Z,7.45
2022-10-24T04:55:43.939Z,6.57
2022-10-24T04:57:17.447Z,7.72
2022-10-24T04:58:50.565Z,6.53
2022-10-24T05:00:24.072Z,7.72
2022-10-24T05:01:57.387Z,6.53
2022-10-24T05:03:30.727Z,5.90
2022-10-24T05:05:03.897Z,8.50
2022-10-24T05:06:39.226Z,11.75
2022-10-24T05:08:14.684Z,8.63
2022-10-24T05:09:47.938Z,11.30
2022-10-24T05:11:22.465Z,9.65
2022-10-24T05:12:55.628Z,9.85
2022-10-24T05:14:28.812Z,8.15
2022-10-24T05:16:03.277Z,6.43
2022-10-24T05:17:36.665Z,7.28
2022-10-24T05:19:09.830Z,6.03
2022-10-24T05:20:43.040Z,6.45
2022-10-24T05:22:16.307Z,4.93
2022-10-24T05:23:49.444Z,4.75
2022-10-24T05:25:22.871Z,4.60
2022-10-24T05:26:57.750Z,4.22
2022-10-24T05:28:31.022Z,4.00
2022-10-24T05:30:04.066Z,4.85
2022-10-24T05:31:37.330Z,6.80
2022-10-24T05:33:10.635Z,16.50
2022-10-24T05:34:42.954Z,14.60
2022-10-24T05:36:16.083Z,7.22
2022-10-24T05:37:49.264Z,8.43
2022-10-24T05:39:22.965Z,9.77
2022-10-24T05:40:56.365Z,8.32
2022-10-24T05:42:30.870Z,7.85
2022-10-24T05:44:04.061Z,7.40
2022-10-24T05:45:37.394Z,6.88
2022-10-24T05:47:10.797Z,6.72
2022-10-24T05:48:43.916Z,6.07
2022-10-24T05:50:17.514Z,5.10
2022-10-24T05:51:49.810Z,4.93
2022-10-24T05:53:22.966Z,4.75
2022-10-24T05:55:06.728Z,5.82
2022-10-24T05:56:40.448Z,4.78
2022-10-24T05:58:15.021Z,4.25
2022-10-24T05:59:48.286Z,4.50
2022-10-24T06:01:21.488Z,6.47
2022-10-24T06:02:54.809Z,7.78
2022-10-24T06:04:27.982Z,6.40
2022-10-24T06:06:06.285Z,6.93
2022-10-24T06:07:39.527Z,6.93
2022-10-24T06:09:13.261Z,6.72
2022-10-24T06:10:48.778Z,7.00
2022-10-24T06:12:22.146Z,6.68
2022-10-24T06:13:56.696Z,7.93
2022-10-24T06:15:30.062Z,6.43
2022-10-24T06:17:05.583Z,10.43
2022-10-24T06:18:40.328Z,12.02
2022-10-24T06:20:13.493Z,12.10
2022-10-24T06:21:46.716Z,9.57
2022-10-24T06:23:20.090Z,9.43
2022-10-24T06:24:53.516Z,9.00
2022-10-24T06:26:26.913Z,7.63
2022-10-24T06:28:00.416Z,6.60
2022-10-24T06:29:35.711Z,6.57
2022-10-24T06:31:09.446Z,6.50
2022-10-24T06:32:44.554Z,9.23
2022-10-24T06:34:18.116Z,8.20
2022-10-24T06:35:51.328Z,8.50
2022-10-24T06:37:24.792Z,8.20
2022-10-24T06:38:58.440Z,7.20
2022-10-24T06:40:31.824Z,8.20
2022-10-24T06:42:05.061Z,7.55
2022-10-24T06:43:39.032Z,8.07
2022-10-24T06:45:13.897Z,7.18
2022-10-24T06:46:47.276Z,6.88
2022-10-24T06:48:20.561Z,7.40
2022-10-24T06:49:53.838Z,6.80
2022-10-24T06:51:27.260Z,6.43
2022-10-24T06:53:00.471Z,6.88
2022-10-24T06:54:35.240Z,6.95
2022-10-24T06:56:09.479Z,6.72
2022-10-24T06:57:43.178Z,6.57
2022-10-24T06:59:18.236Z,6.35
2022-10-24T07:00:52.921Z,6.45
2022-10-24T07:02:26.413Z,6.20
2022-10-24T07:03:59.694Z,6.95
2022-10-24T07:05:32.889Z,7.50
2022-10-24T07:07:06.193Z,9.10
2022-10-24T07:08:39.527Z,7.93
2022-10-24T07:10:14.739Z,8.38
2022-10-24T07:11:47.932Z,9.27
2022-10-24T07:13:21.087Z,8.75
2022-10-24T07:14:54.336Z,8.43
2022-10-24T07:16:29.041Z,8.70
2022-10-24T07:18:02.311Z,8.27
2022-10-24T07:19:37.439Z,8.85
2022-10-24T07:21:16.009Z,10.95
2022-10-24T07:22:49.508Z,9.18
2022-10-24T07:24:22.759Z,9.52
2022-10-24T07:25:56.080Z,10.02
2022-10-24T07:27:29.362Z,9.13
2022-10-24T07:29:03.701Z,8.52
2022-10-24T07:30:36.951Z,8.77
2022-10-24T07:32:12.159Z,8.63
2022-10-24T07:33:45.509Z,6.75
2022-10-24T07:35:18.745Z,6.75
2022-10-24T07:36:51.959Z,8.02
2022-10-24T07:38:25.174Z,8.40
2022-10-24T07:39:58.681Z,8.32
2022-10-24T07:41:33.930Z,8.00
2022-10-24T07:43:07.139Z,9.10
2022-10-24T07:44:40.525Z,10.43
2022-10-24T07:46:17.160Z,10.25
2022-10-24T07:47:51.748Z,10.40
2022-10-24T07:49:26.450Z,10.57
2022-10-24T07:51:01.192Z,10.00
2022-10-24T07:52:34.491Z,9.63
2022-10-24T07:54:08.008Z,10.73
2022-10-24T07:55:42.413Z,9.35
2022-10-24T07:57:15.649Z,9.55
2022-10-24T07:58:48.966Z,10.32
2022-10-24T08:00:22.789Z,10.13
2022-10-24T08:01:56.037Z,8.90
2022-10-24T08:03:30.720Z,8.02
2022-10-24T08:05:04.061Z,7.65
2022-10-24T08:06:37.743Z,6.70
2022-10-24T08:08:30.853Z,6.13
2022-10-24T08:10:05.474Z,6.38
2022-10-24T08:11:40.181Z,6.70
2022-10-24T08:13:13.689Z,16.83
2022-10-24T08:14:47.701Z,15.85
2022-10-24T08:16:22.909Z,6.68
2022-10-24T08:17:56.629Z,7.50
2022-10-24T08:19:31.673Z,8.65
2022-10-24T08:21:07.081Z,5.72
2022-10-24T08:22:40.317Z,7.60
2022-10-24T08:24:13.786Z,6.93
2022-10-24T08:25:46.906Z,8.27
2022-10-24T08:27:20.123Z,7.88
2022-10-24T08:28:55.377Z,6.47
2022-10-24T08:30:28.848Z,5.57
2022-10-24T08:32:01.976Z,5.18
2022-10-24T08:33:35.291Z,3.80
2022-10-24T08:35:10.872Z,4.88
2022-10-24T08:36:44.769Z,5.10
2022-10-24T08:38:18.062Z,4.75
2022-10-24T08:39:55.618Z,5.88
2022-10-24T08:41:32.316Z,6.13
2022-10-24T08:43:05.672Z,5.47
2022-10-24T08:44:40.940Z,7.03
2022-10-24T08:46:29.576Z,7.43
2022-10-24T08:48:08.485Z,6.70
2022-10-24T08:49:50.264Z,7.03
2022-10-24T08:51:36.096Z,8.93
2022-10-24T08:53:14.619Z,7.63
2022-10-24T08:54:48.409Z,6.20
2022-10-24T08:56:22.382Z,4.85
2022-10-24T08:57:58.782Z,6.50
2022-10-24T08:59:36.052Z,4.78
2022-10-24T09:01:15.912Z,5.03
2022-10-24T09:02:54.408Z,4.00
2022-10-24T09:04:33.069Z,4.00
2022-10-24T09:06:13.414Z,3.97
2022-10-24T09:07:49.201Z,4.45
2022-10-24T09:09:27.543Z,3.90
2022-10-24T09:11:02.521Z,3.83
2022-10-24T09:12:37.279Z,3.30
2022-10-24T09:14:14.853Z,2.72
2022-10-24T09:15:48.769Z,2.42
2022-10-24T09:17:24.036Z,2.88
2022-10-24T09:18:59.189Z,3.08
2022-10-24T09:20:33.685Z,3.03
2022-10-24T09:22:09.232Z,2.80
2022-10-24T09:23:44.998Z,3.80
2022-10-24T09:25:22.712Z,3.13
2022-10-24T09:26:56.087Z,3.80
2022-10-24T09:28:29.457Z,2.92
2022-10-24T09:30:03.032Z,2.90
2022-10-24T09:31:36.512Z,2.47
2022-10-24T09:33:22.793Z,2.72
2022-10-24T09:34:56.836Z,2.30
2022-10-24T09:36:31.917Z,2.30
2022-10-24T09:38:27.818Z,2.00
2022-10-24T09:40:20.524Z,1.60
2022-10-24T09:41:54.264Z,1.92
2022-10-24T09:43:40.563Z,1.60
2022-10-24T09:45:39.828Z,2.13
2022-10-24T09:47:27.165Z,2.38
2022-10-24T09:49:02.986Z,1.85
2022-10-24T09:50:37.389Z,2.15
2022-10-24T09:52:20.161Z,2.50
2022-10-24T09:54:06.697Z,3.03
2022-10-24T09:55:46.825Z,2.17
2022-10-24T09:57:21.497Z,2.50
2022-10-24T09:58:54.749Z,2.35
2022-10-24T10:00:30.796Z,2.00
2022-10-24T10:02:24.574Z,2.67
2022-10-24T10:04:08.433Z,2.05
2022-10-24T10:05:45.905Z,1.60
2022-10-24T10:07:26.564Z,2.30
2022-10-24T10:09:00.014Z,2.88
2022-10-24T10:10:35.260Z,2.40
2022-10-24T10:12:27.922Z,2.63
2022-10-24T10:14:03.801Z,2.55
2022-10-24T10:15:40.181Z,2.05
2022-10-24T10:17:24.330Z,2.17
2022-10-24T10:19:04.126Z,2.17
2022-10-24T10:20:42.149Z,2.25
2022-10-24T10:22:26.087Z,1.98
2022-10-24T10:24:01.956Z,2.17
2022-10-24T10:25:35.327Z,1.98
2022-10-24T10:27:32.594Z,2.08
2022-10-24T10:29:09.177Z,2.05
2022-10-24T10:30:50.926Z,1.98
2022-10-24T10:32:31.209Z,1.40
2022-10-24T10:34:23.133Z,1.48
2022-10-24T10:36:04.593Z,1.70
2022-10-24T10:37:44.979Z,1.77
2022-10-24T10:39:33.789Z,1.50
2022-10-24T10:41:14.488Z,1.70
2022-10-24T10:43:07.343Z,1.35
2022-10-24T10:44:58.427Z,1.92
2022-10-24T10:46:38.926Z,1.75
2022-10-24T10:48:37.678Z,1.70
2022-10-24T10:50:26.592Z,1.63
2022-10-24T10:52:04.122Z,1.88
2022-10-24T10:53:43.798Z,2.25
2022-10-24T10:55:29.608Z,1.50
2022-10-24T10:57:09.480Z,1.80
2022-10-24T10:58:54.400Z,2.10
2022-10-24T11:00:37.133Z,1.77
2022-10-24T11:02:25.423Z,2.10
2022-10-24T11:04:05.956Z,2.90
2022-10-24T11:05:49.759Z,1.50
2022-10-24T11:07:33.649Z,1.20
2022-10-24T11:09:29.809Z,1.48
2022-10-24T11:11:06.875Z,1.90
2022-10-24T11:12:42.262Z,3.13
2022-10-24T11:14:29.883Z,2.45
2022-10-24T11:16:08.568Z,1.80
2022-10-24T11:17:46.914Z,1.95
2022-10-24T11:19:25.954Z,1.83
2022-10-24T11:21:03.985Z,2.60
2022-10-24T11:22:43.181Z,2.20
2022-10-24T11:24:20.352Z,1.40
2022-10-24T11:25:58.513Z,1.73
2022-10-24T11:27:39.929Z,1.80
2022-10-24T11:29:24.145Z,2.05
2022-10-24T11:31:02.083Z,1.60
2022-10-24T11:32:40.434Z,1.83
2022-10-24T11:34:16.633Z,2.03
2022-10-24T11:36:12.540Z,2.80
2022-10-24T11:37:51.619Z,2.25
2022-10-24T11:39:28.911Z,2.22
2022-10-24T11:41:34.486Z,1.73
2022-10-24T11:43:17.384Z,1.42
2022-10-24T11:44:57.185Z,2.28
2022-10-24T11:46:38.175Z,1.67
2022-10-24T11:48:18.129Z,1.95
2022-10-24T11:49:57.851Z,2.22
2022-10-24T11:51:37.933Z,2.60
2022-10-24T11:53:25.039Z,2.17
2022-10-24T11:55:07.169Z,1.80
2022-10-24T11:56:47.018Z,2.08
2022-10-24T11:58:23.912Z,1.90
2022-10-24T11:59:59.917Z,2.72
2022-10-24T12:01:52.937Z,2.75
2022-10-24T12:04:11.454Z,2.58
2022-10-24T12:06:05.107Z,2.70
2022-10-24T12:08:14.285Z,3.17
2022-10-24T12:10:12.999Z,2.33
2022-10-24T12:12:08.314Z,3.22
2022-10-24T12:14:09.035Z,3.53
2022-10-24T12:15:52.898Z,3.22
2022-10-24T12:17:47.619Z,2.60
2022-10-24T12:19:23.613Z,2.53
2022-10-24T12:21:01.864Z,2.63
2022-10-24T12:22:38.275Z,2.40
2022-10-24T12:24:24.150Z,2.78
2022-10-24T12:26:09.004Z,2.20
2022-10-24T12:27:43.176Z,3.25
2022-10-24T12:29:25.372Z,2.53
2022-10-24T12:31:26.212Z,2.30
2022-10-24T12:33:09.549Z,2.08
2022-10-24T12:34:49.068Z,2.50
2022-10-24T12:37:08.283Z,1.88
2022-10-24T12:39:09.548Z,1.88
2022-10-24T12:40:57.866Z,1.70
2022-10-24T12:43:13.568Z,1.60
2022-10-24T12:44:50.539Z,2.17
2022-10-24T12:46:56.235Z,2.28
2022-10-24T12:48:35.755Z,1.80
2022-10-24T12:50:45.935Z,1.25
2022-10-24T12:52:51.457Z,1.50
2022-10-24T12:54:41.236Z,1.70
2022-10-24T12:57:57.858Z,2.22
2022-10-24T12:59:32.660Z,1.45
2022-10-24T13:01:08.034Z,1.95
2022-10-24T13:03:03.464Z,1.73
2022-10-24T13:04:56.458Z,1.52
2022-10-24T13:06:37.983Z,1.25
2022-10-24T13:08:30.799Z,1.63
2022-10-24T13:10:25.956Z,1.77
2022-10-24T13:12:10.606Z,1.77
2022-10-24T13:14:09.487Z,1.35
2022-10-24T13:15:50.060Z,1.80
2022-10-24T13:17:33.625Z,1.52
2022-10-24T13:19:17.369Z,1.17
2022-10-24T13:21:08.665Z,1.50
2022-10-24T13:22:47.160Z,1.45
2022-10-24T13:24:30.849Z,1.63
2022-10-24T13:26:04.909Z,1.90
2022-10-24T13:27:38.084Z,1.30
2022-10-24T13:29:16.877Z,1.70
2022-10-24T13:30:53.316Z,2.13
2022-10-24T13:32:35.092Z,1.52
2022-10-24T13:34:28.813Z,1.33
2022-10-24T13:36:16.617Z,1.65
2022-10-24T13:37:54.117Z,1.65
2022-10-24T13:39:37.498Z,1.60
2022-10-24T13:41:19.989Z,1.38
2022-10-24T13:42:57.577Z,1.30
2022-10-24T13:44:39.702Z,1.42
2022-10-24T13:46:24.089Z,2.10
2022-10-24T13:48:02.077Z,1.55
2022-10-24T13:49:41.038Z,1.40
2022-10-24T13:51:19.234Z,2.00
2022-10-24T13:52:55.023Z,2.28
2022-10-24T13:54:33.189Z,1.40
2022-10-24T13:56:10.877Z,1.90
2022-10-24T13:57:53.544Z,2.00
2022-10-24T13:59:31.605Z,1.45
2022-10-24T14:01:10.060Z,1.70
2022-10-24T14:02:44.202Z,2.20
2022-10-24T14:04:17.573Z,2.00
2022-10-24T14:05:54.402Z,2.13
2022-10-24T14:07:31.441Z,1.80
2022-10-24T14:09:10.319Z,1.90
2022-10-24T14:10:43.479Z,1.73
2022-10-24T14:12:21.811Z,1.77
2022-10-24T14:13:59.586Z,1.83
2022-10-24T14:15:34.700Z,2.47
2022-10-24T14:17:22.799Z,1.88
2022-10-24T14:19:15.459Z,2.15
2022-10-24T14:20:56.792Z,2.45
2022-10-24T14:22:36.014Z,2.38
2022-10-24T14:24:15.311Z,1.90
2022-10-24T14:25:57.318Z,1.83
2022-10-24T14:27:30.578Z,2.20
2022-10-24T14:29:03.971Z,2.65
2022-10-24T14:30:37.607Z,2.33
2022-10-24T14:32:16.457Z,3.55
2022-10-24T14:33:51.544Z,3.10
2022-10-24T14:35:25.204Z,2.80
2022-10-24T14:37:02.312Z,3.92
2022-10-24T14:38:36.611Z,6.95
2022-10-24T14:40:17.345Z,7.22
2022-10-24T14:41:52.136Z,6.82
2022-10-24T14:43:29.673Z,5.65
2022-10-24T14:45:02.998Z,3.05
2022-10-24T14:46:37.582Z,2.80
2022-10-24T14:48:23.793Z,2.72
2022-10-24T14:49:57.604Z,4.18
2022-10-24T14:51:38.579Z,4.57
2022-10-24T14:53:26.069Z,4.25
2022-10-24T14:55:03.274Z,3.47
2022-10-24T14:56:38.169Z,2.83
2022-10-24T14:58:23.718Z,3.40
2022-10-24T14:59:58.483Z,2.78
2022-10-24T15:01:32.213Z,2.60
2022-10-24T15:03:05.504Z,2.15
2022-10-24T15:04:42.071Z,2.53
2022-10-24T15:06:24.873Z,1.83
2022-10-24T15:08:20.924Z,2.70
2022-10-24T15:09:58.516Z,4.65
2022-10-24T15:11:33.497Z,7.50
2022-10-24T15:13:13.680Z,8.70
2022-10-24T15:14:50.179Z,6.57
2022-10-24T15:16:28.563Z,4.25
2022-10-24T15:18:10.001Z,3.95
2022-10-24T15:19:43.214Z,7.50
2022-10-24T15:21:20.753Z,8.18
2022-10-24T15:22:58.252Z,4.97
2022-10-24T15:24:31.638Z,5.38
2022-10-24T15:26:11.869Z,5.55
2022-10-24T15:27:47.549Z,3.15
2022-10-24T15:29:23.222Z,3.28
2022-10-24T15:30:56.585Z,4.45
2022-10-24T15:32:29.764Z,4.75
2022-10-24T15:34:03.077Z,6.78
2022-10-24T15:35:42.479Z,8.40
2022-10-24T15:37:20.587Z,8.80
2022-10-24T15:38:57.975Z,7.90
2022-10-24T15:40:33.915Z,8.35
2022-10-24T15:42:10.235Z,7.35
2022-10-24T15:43:43.734Z,7.13
2022-10-24T15:45:18.455Z,9.15
2022-10-24T15:46:51.741Z,8.80
2022-10-24T15:48:25.477Z,7.18
2022-10-24T15:49:58.972Z,6.18
2022-10-24T15:51:32.546Z,5.32
2022-10-24T15:53:06.791Z,3.22
2022-10-24T15:54:42.014Z,3.47
2022-10-24T15:56:15.532Z,4.95
2022-10-24T15:57:50.269Z,5.05
2022-10-24T15:59:26.809Z,4.15
2022-10-24T16:01:00.542Z,3.80
2022-10-24T16:02:33.992Z,4.43
2022-10-24T16:04:09.372Z,6.05
2022-10-24T16:05:44.838Z,10.38
2022-10-24T16:07:18.266Z,10.38
2022-10-24T16:08:51.834Z,18.90
2022-10-24T16:10:25.037Z,11.80
2022-10-24T16:11:58.538Z,11.13
2022-10-24T16:13:33.148Z,7.72
2022-10-24T16:15:07.585Z,6.60
2022-10-24T16:16:40.841Z,7.47
2022-10-24T16:18:14.620Z,6.20
2022-10-24T16:19:47.847Z,7.47
2022-10-24T16:21:23.794Z,7.60
2022-10-24T16:22:57.050Z,7.00
2022-10-24T16:24:30.446Z,6.97
2022-10-24T16:26:03.620Z,6.57
2022-10-24T16:27:36.841Z,7.90
2022-10-24T16:29:11.796Z,9.48
2022-10-24T16:30:45.129Z,8.32
2022-10-24T16:33:56.367Z,5.45
2022-10-24T16:35:31.178Z,5.10
2022-10-24T16:37:04.486Z,10.48
2022-10-24T16:38:37.866Z,20.25
2022-10-24T16:40:12.232Z,8.57
2022-10-24T16:41:46.370Z,10.18
2022-10-24T16:43:21.332Z,17.48
2022-10-24T16:44:56.034Z,17.70
2022-10-24T16:46:29.547Z,17.88
2022-10-24T16:48:02.761Z,22.05
2022-10-24T16:49:35.974Z,19.50
2022-10-24T16:51:11.716Z,39.25
2022-10-24T16:52:45.299Z,24.58
2022-10-24T16:54:19.518Z,21.20
2022-10-24T16:55:55.005Z,23.13
2022-10-24T16:57:28.211Z,52.95
2022-10-24T16:59:01.504Z,35.88
2022-10-24T17:00:36.113Z,30.83
2022-10-24T17:02:10.169Z,29.23
2022-10-24T17:03:45.067Z,30.17
2022-10-24T17:05:19.577Z,27.40
2022-10-24T17:06:52.822Z,27.92
2022-10-24T17:08:26.414Z,32.17
2022-10-24T17:09:59.537Z,29.02
2022-10-24T17:11:44.953Z,29.25
2022-10-24T17:13:19.082Z,29.88
2022-10-24T17:14:52.407Z,30.05
2022-10-24T17:16:26.942Z,26.67
2022-10-24T17:18:00.427Z,26.48
2022-10-24T17:19:35.827Z,26.15
2022-10-24T17:21:09.209Z,28.30
2022-10-24T17:22:44.574Z,33.15
2022-10-24T17:24:19.756Z,45.60
2022-10-24T17:25:53.251Z,43.92
2022-10-24T17:27:26.979Z,58.95
2022-10-24T17:29:02.539Z,66.72
2022-10-24T17:30:36.273Z,67.38
2022-10-24T17:32:12.765Z,62.90
2022-10-24T17:33:46.407Z,60.95
2022-10-24T17:35:21.961Z,58.85
2022-10-24T17:37:03.872Z,53.92
2022-10-24T17:38:44.916Z,53.40
2022-10-24T17:40:21.592Z,50.65
2022-10-24T17:41:55.003Z,34.75
2022-10-24T17:43:29.779Z,22.73
2022-10-24T17:45:03.304Z,30.98
2022-10-24T17:46:37.925Z,32.45
2022-10-24T17:48:12.856Z,23.05
2022-10-24T17:49:46.453Z,25.95
2022-10-24T17:51:23.289Z,26.10
2022-10-24T17:52:56.574Z,19.33
2022-10-24T17:54:29.909Z,11.95
2022-10-24T17:56:03.128Z,10.77
2022-10-24T17:57:36.423Z,7.95
2022-10-24T17:59:10.434Z,7.95
2022-10-24T18:00:44.269Z,9.10
2022-10-24T18:02:17.733Z,10.30
2022-10-24T18:03:52.425Z,10.80
2022-10-24T18:05:25.943Z,7.72
2022-10-24T18:06:59.156Z,7.30
2022-10-24T18:08:33.743Z,6.75
2022-10-24T18:10:07.480Z,6.53
2022-10-24T18:11:41.288Z,9.35
2022-10-24T18:13:14.491Z,5.80
2022-10-24T18:14:47.720Z,5.03
2022-10-24T18:16:21.963Z,6.32
2022-10-24T18:17:55.607Z,8.02
2022-10-24T18:19:30.173Z,5.82
2022-10-24T18:21:08.609Z,4.78
2022-10-24T18:22:42.737Z,5.43
2022-10-24T18:24:16.281Z,4.90
2022-10-24T18:25:49.459Z,5.38
2022-10-24T18:27:22.662Z,8.85
2022-10-24T18:28:58.132Z,7.28
2022-10-24T18:30:32.197Z,5.78
2022-10-24T18:32:05.628Z,5.93
2022-10-24T18:33:39.671Z,6.03
2022-10-24T18:35:14.358Z,5.75
2022-10-24T18:36:47.678Z,6.68
2022-10-24T18:38:20.800Z,5.15
2022-10-24T18:39:54.608Z,4.97
2022-10-24T18:41:46.978Z,5.97
2022-10-24T18:43:20.601Z,4.80
2022-10-24T18:44:54.780Z,5.45
2022-10-24T18:46:29.564Z,6.70
2022-10-24T18:48:03.173Z,16.42
2022-10-24T18:49:37.257Z,16.38
2022-10-24T18:51:23.449Z,13.70
2022-10-24T18:53:02.715Z,13.18
2022-10-24T18:54:37.961Z,29.27
2022-10-24T18:56:11.816Z,14.13
2022-10-24T18:57:45.782Z,13.80
2022-10-24T18:59:22.265Z,18.90
2022-10-24T19:01:00.108Z,11.10
2022-10-24T19:02:39.303Z,7.18
2022-10-24T19:04:19.145Z,6.30
2022-10-24T19:05:58.417Z,8.18
2022-10-24T19:07:33.303Z,6.15
2022-10-24T19:09:16.950Z,5.55
2022-10-24T19:10:51.825Z,6.07
2022-10-24T19:12:26.297Z,6.40
2022-10-24T19:13:59.618Z,6.15
2022-10-24T19:15:33.243Z,4.90
2022-10-24T19:17:07.305Z,4.00
2022-10-24T19:18:52.962Z,3.88
2022-10-24T19:20:27.029Z,5.18
2022-10-24T19:22:00.236Z,4.60
2022-10-24T19:23:35.314Z,6.63
2022-10-24T19:25:09.375Z,4.53
2022-10-24T19:26:42.572Z,4.50
2022-10-24T19:28:18.708Z,5.20
2022-10-24T19:29:52.016Z,5.75
2022-10-24T19:31:25.396Z,4.93
2022-10-24T19:32:58.634Z,6.05
2022-10-24T19:34:32.138Z,6.30
2022-10-24T19:36:06.417Z,9.88
2022-10-24T19:37:40.261Z,9.73
2022-10-24T19:39:14.856Z,9.40
2022-10-24T19:40:49.813Z,8.20
2022-10-24T19:42:22.980Z,5.65
2022-10-24T19:43:56.508Z,7.38
2022-10-24T19:45:29.712Z,7.03
2022-10-24T19:47:03.124Z,5.47
2022-10-24T19:48:37.959Z,4.95
2022-10-24T19:50:12.666Z,4.13
2022-10-24T19:51:45.853Z,4.45
2022-10-24T19:53:19.618Z,4.00
2022-10-24T19:54:54.131Z,3.55
2022-10-24T19:56:29.127Z,4.10
2022-10-24T19:58:02.309Z,4.45
2022-10-24T19:59:36.406Z,5.93
2022-10-24T20:01:12.115Z,6.70
2022-10-24T20:02:46.079Z,6.18
2022-10-24T20:04:19.438Z,5.97
2022-10-24T20:05:52.826Z,5.70
2022-10-24T20:07:26.219Z,4.90
2022-10-24T20:08:59.932Z,4.85
2022-10-24T20:10:34.497Z,5.60
2022-10-24T20:12:08.190Z,5.20
2022-10-24T20:13:41.328Z,3.90
2022-10-24T20:15:15.834Z,4.38
2022-10-24T20:16:49.085Z,4.05
2022-10-24T20:18:22.646Z,4.88
2022-10-24T20:19:55.799Z,4.28
2022-10-24T20:21:29.337Z,4.50
2022-10-24T20:23:02.925Z,4.95
2022-10-24T20:24:36.217Z,4.75
2022-10-24T20:26:12.782Z,4.60
2022-10-24T20:27:46.469Z,11.02
2022-10-24T20:29:19.897Z,8.95
2022-10-24T20:30:53.619Z,5.90
2022-10-24T20:32:26.825Z,6.00
2022-10-24T20:34:06.791Z,6.10
2022-10-24T20:35:41.622Z,4.18
2022-10-24T20:37:15.063Z,5.65
2022-10-24T20:38:48.254Z,6.28
2022-10-24T20:40:21.538Z,6.32
2022-10-24T20:41:56.098Z,7.25
2022-10-24T20:43:29.688Z,6.28
2022-10-24T20:45:02.812Z,6.05
2022-10-24T20:46:36.277Z,4.40
2022-10-24T20:48:09.646Z,3.50
2022-10-24T20:49:43.059Z,3.72
2022-10-24T20:51:18.069Z,4.10
2022-10-24T20:52:53.163Z,4.10
2022-10-24T20:54:26.492Z,4.38
2022-10-24T20:56:05.088Z,5.60
2022-10-24T20:57:39.605Z,4.57
2022-10-24T20:59:14.512Z,4.22
2022-10-24T21:00:47.694Z,5.32
2022-10-24T21:02:21.210Z,5.68
2022-10-24T21:03:55.224Z,6.18
2022-10-24T21:05:29.171Z,6.45
2022-10-24T21:07:02.366Z,5.35
2022-10-24T21:08:35.766Z,5.18
2022-10-24T21:10:09.472Z,6.07
2022-10-24T21:11:42.981Z,6.45
2022-10-24T21:13:17.515Z,5.45
2022-10-24T21:14:50.899Z,6.95
2022-10-24T21:16:24.538Z,6.88
2022-10-24T21:17:57.839Z,5.93
2022-10-24T21:19:31.194Z,5.45
2022-10-24T21:21:08.846Z,5.63
2022-10-24T21:22:41.965Z,6.68
2022-10-24T21:24:17.802Z,7.10
2022-10-24T21:25:50.961Z,6.13
2022-10-24T21:27:24.276Z,5.03
2022-10-24T21:29:08.654Z,5.78
2022-10-24T21:30:48.135Z,5.78